createdAt,value
2022-09-12T00:02:24.957Z,1.67
2022-09-12T00:05:28.176Z,1.60
2022-09-12T00:08:30.017Z,1.80
2022-09-12T00:11:32.133Z,1.70
2022-09-12T00:14:34.667Z,1.60
2022-09-12T00:17:37.859Z,1.87
2022-09-12T00:20:47.203Z,1.67
2022-09-12T00:23:49.640Z,1.85
2022-09-12T00:26:51.460Z,1.92
2022-09-12T00:29:53.661Z,2.10
2022-09-12T00:32:58.010Z,1.55
2022-09-12T00:35:59.797Z,1.40
2022-09-12T00:39:01.639Z,1.70
2022-09-12T00:42:03.689Z,1.42
2022-09-12T00:45:06.090Z,1.80
2022-09-12T00:48:22.635Z,1.95
2022-09-12T00:51:24.670Z,1.80
2022-09-12T00:54:30.831Z,2.10
2022-09-12T00:57:45.331Z,1.83
2022-09-12T01:00:47.621Z,1.80
2022-09-12T01:03:49.700Z,2.10
2022-09-12T01:06:53.102Z,2.00
2022-09-12T01:09:55.373Z,2.28
2022-09-12T01:12:57.620Z,2.08
2022-09-12T01:15:59.269Z,1.95
2022-09-12T01:19:16.508Z,2.00
2022-09-12T01:22:23.911Z,1.98
2022-09-12T01:28:44.700Z,2.08
2022-09-12T01:31:54.585Z,2.25
2022-09-12T01:35:12.600Z,2.00
2022-09-12T01:38:29.582Z,2.10
2022-09-12T01:41:50.211Z,1.90
2022-09-12T01:45:15.478Z,2.20
2022-09-12T01:48:24.947Z,2.05
2022-09-12T01:51:36.130Z,2.30
2022-09-12T01:55:03.080Z,2.28
2022-09-12T01:58:13.220Z,2.30
2022-09-12T02:01:20.526Z,2.08
2022-09-12T02:07:42.491Z,2.60
2022-09-12T02:10:59.286Z,2.10
2022-09-12T02:14:12.457Z,2.37
2022-09-12T02:17:21.406Z,2.20
2022-09-12T02:20:47.483Z,2.20
2022-09-12T02:23:57.436Z,2.58
2022-09-12T02:27:12.604Z,2.53
2022-09-12T02:30:16.636Z,2.47
2022-09-12T02:33:31.570Z,2.83
2022-09-12T02:36:50.255Z,3.00
2022-09-12T02:39:55.323Z,3.20
2022-09-12T02:42:57.839Z,2.55
2022-09-12T02:46:00.146Z,2.55
2022-09-12T02:49:02.315Z,2.60
2022-09-12T02:52:04.589Z,2.30
2022-09-12T02:55:08.140Z,2.28
2022-09-12T02:58:16.265Z,2.80
2022-09-12T03:01:26.883Z,3.05
2022-09-12T03:04:43.710Z,2.58
2022-09-12T03:08:03.755Z,2.85
2022-09-12T03:11:31.668Z,2.78
2022-09-12T03:14:47.928Z,2.72
2022-09-12T03:17:56.038Z,1.92
2022-09-12T03:21:05.754Z,2.17
2022-09-12T03:24:39.747Z,2.47
2022-09-12T03:27:51.878Z,2.55
2022-09-12T03:30:55.965Z,2.40
2022-09-12T03:33:59.997Z,2.30
2022-09-12T03:37:02.255Z,2.35
2022-09-12T03:40:08.461Z,2.72
2022-09-12T03:43:10.999Z,2.67
2022-09-12T03:46:13.643Z,2.60
2022-09-12T03:49:15.669Z,2.62
2022-09-12T03:52:17.280Z,2.90
2022-09-12T03:55:19.132Z,2.90
2022-09-12T03:58:21.241Z,2.75
2022-09-12T04:01:23.193Z,3.08
2022-09-12T04:04:25.086Z,2.92
2022-09-12T04:07:27.448Z,3.08
2022-09-12T04:10:29.393Z,2.67
2022-09-12T04:13:31.056Z,2.50
2022-09-12T04:16:33.110Z,2.80
2022-09-12T04:19:34.915Z,2.80
2022-09-12T04:22:36.849Z,2.60
2022-09-12T04:25:38.475Z,2.40
2022-09-12T04:28:41.475Z,1.98
2022-09-12T04:31:43.972Z,2.87
2022-09-12T04:34:47.253Z,2.40
2022-09-12T04:37:48.864Z,2.70
2022-09-12T04:40:50.675Z,2.20
2022-09-12T04:43:55.031Z,2.30
2022-09-12T04:46:57.319Z,2.33
2022-09-12T04:49:58.889Z,2.30
2022-09-12T04:53:00.743Z,2.58
2022-09-12T04:56:04.188Z,2.45
2022-09-12T04:59:06.524Z,2.60
2022-09-12T05:02:08.449Z,2.08
2022-09-12T05:05:11.552Z,2.58
2022-09-12T05:08:13.530Z,2.10
2022-09-12T05:11:24.787Z,2.53
2022-09-12T05:14:28.696Z,2.78
2022-09-12T05:17:30.631Z,2.75
2022-09-12T05:20:34.169Z,2.53
2022-09-12T05:23:36.476Z,2.47
2022-09-12T05:26:38.522Z,2.20
2022-09-12T05:29:40.265Z,2.28
2022-09-12T05:32:41.852Z,2.17
2022-09-12T05:35:51.762Z,2.22
2022-09-12T05:38:54.258Z,2.40
2022-09-12T05:41:56.408Z,2.45
2022-09-12T05:44:58.745Z,2.65
2022-09-12T05:48:00.587Z,2.45
2022-09-12T05:51:06.834Z,2.28
2022-09-12T05:54:11.100Z,2.17
2022-09-12T05:57:12.678Z,2.20
2022-09-12T06:00:15.278Z,2.40
2022-09-12T06:03:17.882Z,2.10
2022-09-12T06:06:21.740Z,2.72
2022-09-12T06:09:25.503Z,2.45
2022-09-12T06:12:30.077Z,2.17
2022-09-12T06:15:32.971Z,2.05
2022-09-12T06:18:35.914Z,2.53
2022-09-12T06:21:47.970Z,2.20
2022-09-12T06:24:49.708Z,2.00
2022-09-12T06:27:56.264Z,2.00
2022-09-12T06:31:06.152Z,2.90
2022-09-12T06:34:10.559Z,3.10
2022-09-12T06:37:12.162Z,2.40
2022-09-12T06:40:16.376Z,2.08
2022-09-12T06:43:18.010Z,1.80
2022-09-12T06:46:20.479Z,2.08
2022-09-12T06:49:22.381Z,2.37
2022-09-12T06:52:24.031Z,2.33
2022-09-12T06:55:27.717Z,2.30
2022-09-12T06:58:30.386Z,2.60
2022-09-12T07:01:32.648Z,2.92
2022-09-12T07:04:36.791Z,2.30
2022-09-12T07:07:38.401Z,1.83
2022-09-12T07:10:39.948Z,1.85
2022-09-12T07:13:43.872Z,2.00
2022-09-12T07:16:45.530Z,1.65
2022-09-12T07:19:47.613Z,1.90
2022-09-12T07:22:50.999Z,1.83
2022-09-12T07:25:54.475Z,1.80
2022-09-12T07:29:12.728Z,1.70
2022-09-12T07:32:19.202Z,1.58
2022-09-12T07:35:21.695Z,1.67
2022-09-12T07:38:23.575Z,1.70
2022-09-12T07:41:28.319Z,1.80
2022-09-12T07:44:30.307Z,1.77
2022-09-12T07:47:31.871Z,2.30
2022-09-12T07:50:33.803Z,1.77
2022-09-12T07:53:38.441Z,1.77
2022-09-12T07:56:40.888Z,1.80
2022-09-12T07:59:52.451Z,1.48
2022-09-12T08:02:55.320Z,1.67
2022-09-12T08:06:06.867Z,1.75
2022-09-12T08:09:09.142Z,1.60
2022-09-12T08:12:10.818Z,1.50
2022-09-12T08:15:12.431Z,1.60
2022-09-12T08:18:14.640Z,1.40
2022-09-12T08:21:22.988Z,1.30
2022-09-12T08:24:25.103Z,1.30
2022-09-12T08:27:26.864Z,1.37
2022-09-12T08:30:29.516Z,1.30
2022-09-12T08:33:35.443Z,1.25
2022-09-12T08:36:37.170Z,1.20
2022-09-12T08:39:38.957Z,1.40
2022-09-12T08:42:49.806Z,1.50
2022-09-12T08:46:17.610Z,1.37
2022-09-12T08:52:39.571Z,1.40
2022-09-12T08:55:54.154Z,1.17
2022-09-12T08:58:56.229Z,1.30
2022-09-12T09:02:01.747Z,1.20
2022-09-12T09:05:08.060Z,1.15
2022-09-12T09:08:16.251Z,1.35
2022-09-12T09:11:32.916Z,1.10
2022-09-12T09:15:05.282Z,1.00
2022-09-12T09:18:30.085Z,1.10
2022-09-12T09:21:41.288Z,1.25
2022-09-12T09:24:51.389Z,1.10
2022-09-12T09:28:03.821Z,1.10
2022-09-12T09:31:12.121Z,1.40
2022-09-12T09:34:20.193Z,1.00
2022-09-12T09:37:38.269Z,1.20
2022-09-12T09:41:04.163Z,0.88
2022-09-12T09:47:12.898Z,1.00
2022-09-12T09:50:17.228Z,1.10
2022-09-12T09:53:40.093Z,0.93
2022-09-12T09:56:43.025Z,1.20
2022-09-12T09:59:44.935Z,0.90
2022-09-12T10:02:59.415Z,1.27
2022-09-12T10:06:07.595Z,1.23
2022-09-12T10:09:15.587Z,1.50
2022-09-12T10:12:35.305Z,1.15
2022-09-12T10:15:38.482Z,1.15
2022-09-12T10:18:42.890Z,1.10
2022-09-12T10:21:52.735Z,1.30
2022-09-12T10:24:59.042Z,1.50
2022-09-12T10:28:21.521Z,1.20
2022-09-12T10:31:32.687Z,1.30
2022-09-12T10:34:38.000Z,1.17
2022-09-12T10:37:40.386Z,1.40
2022-09-12T10:40:43.960Z,1.50
2022-09-12T10:43:46.180Z,1.62
2022-09-12T10:46:48.310Z,1.27
2022-09-12T10:49:51.561Z,1.23
2022-09-12T10:52:54.975Z,1.30
2022-09-12T10:56:05.615Z,1.30
2022-09-12T10:59:45.268Z,1.10
2022-09-12T11:03:13.653Z,1.42
2022-09-12T11:06:24.249Z,1.30
2022-09-12T11:09:37.822Z,1.23
2022-09-12T11:12:56.559Z,1.20
2022-09-12T11:16:07.220Z,1.30
2022-09-12T11:19:46.014Z,1.70
2022-09-12T11:23:31.362Z,1.17
2022-09-12T11:26:41.936Z,1.30
2022-09-12T11:29:52.125Z,2.97
2022-09-12T11:33:29.048Z,1.60
2022-09-12T11:36:44.894Z,1.15
2022-09-12T11:39:55.386Z,2.10
2022-09-12T11:43:07.745Z,1.50
2022-09-12T11:46:12.600Z,1.48
2022-09-12T11:49:24.224Z,1.25
2022-09-12T11:52:34.198Z,1.30
2022-09-12T11:56:02.477Z,1.10
2022-09-12T11:59:14.092Z,1.20
2022-09-12T12:02:27.904Z,1.00
2022-09-12T12:05:52.236Z,1.20
2022-09-12T12:08:54.292Z,1.37
2022-09-12T12:11:58.577Z,1.50
2022-09-12T12:15:01.361Z,1.10
2022-09-12T12:18:05.180Z,1.30
2022-09-12T12:21:37.599Z,1.33
2022-09-12T12:25:12.535Z,1.23
2022-09-12T12:28:43.179Z,1.48
2022-09-12T12:32:03.574Z,1.37
2022-09-12T12:35:42.253Z,1.48
2022-09-12T12:38:44.537Z,1.40
2022-09-12T12:41:46.587Z,1.10
2022-09-12T12:44:51.779Z,1.10
2022-09-12T12:48:10.165Z,1.17
2022-09-12T12:51:27.321Z,1.00
2022-09-12T12:54:41.118Z,0.93
2022-09-12T12:57:54.373Z,1.23
2022-09-12T13:01:23.165Z,0.85
2022-09-12T13:04:32.550Z,1.20
2022-09-12T13:07:38.976Z,1.00
2022-09-12T13:10:53.140Z,1.08
2022-09-12T13:14:00.951Z,1.30
2022-09-12T13:17:07.812Z,1.45
2022-09-12T13:20:30.115Z,1.25
2022-09-12T13:23:33.068Z,1.10
2022-09-12T13:26:43.117Z,1.15
2022-09-12T13:29:44.998Z,1.37
2022-09-12T13:32:46.632Z,1.40
2022-09-12T13:36:06.636Z,1.15
2022-09-12T13:39:37.426Z,1.40
2022-09-12T13:42:48.851Z,1.20
2022-09-12T13:45:52.875Z,1.42
2022-09-12T13:48:54.476Z,1.50
2022-09-12T13:52:15.775Z,1.30
2022-09-12T13:55:40.556Z,1.40
2022-09-12T13:58:56.836Z,1.33
2022-09-12T14:01:58.462Z,1.55
2022-09-12T14:05:12.263Z,1.42
2022-09-12T14:08:17.384Z,1.48
2022-09-12T14:11:34.112Z,1.77
2022-09-12T14:14:42.406Z,1.40
2022-09-12T14:17:51.982Z,1.25
2022-09-12T14:20:57.338Z,1.37
2022-09-12T14:24:00.872Z,1.55
2022-09-12T14:27:02.831Z,1.20
2022-09-12T14:30:27.805Z,1.60
2022-09-12T14:33:33.084Z,1.25
2022-09-12T14:36:39.769Z,1.60
2022-09-12T14:39:44.904Z,1.40
2022-09-12T14:42:51.623Z,1.77
2022-09-12T14:46:02.491Z,1.00
2022-09-12T14:49:09.306Z,1.02
2022-09-12T14:52:29.748Z,1.00
2022-09-12T14:55:34.006Z,1.00
2022-09-12T14:58:36.898Z,1.08
2022-09-12T15:01:38.995Z,0.95
2022-09-12T15:04:43.259Z,1.20
2022-09-12T15:07:53.702Z,1.20
2022-09-12T15:10:55.855Z,0.90
2022-09-12T15:13:57.683Z,0.70
2022-09-12T15:16:59.416Z,1.30
2022-09-12T15:20:01.333Z,1.17
2022-09-12T15:23:03.701Z,0.80
2022-09-12T15:26:06.442Z,0.80
2022-09-12T15:29:08.616Z,1.08
2022-09-12T15:32:22.697Z,0.98
2022-09-12T15:35:33.800Z,1.42
2022-09-12T15:38:35.629Z,1.02
2022-09-12T15:41:38.393Z,1.33
2022-09-12T15:44:40.759Z,1.00
2022-09-12T15:47:42.577Z,1.02
2022-09-12T15:50:44.700Z,1.23
2022-09-12T15:53:48.398Z,1.30
2022-09-12T15:56:50.168Z,1.48
2022-09-12T15:59:51.964Z,1.62
2022-09-12T16:02:54.675Z,1.12
2022-09-12T16:06:01.917Z,1.08
2022-09-12T16:12:05.207Z,2.00
2022-09-12T16:15:07.478Z,2.42
2022-09-12T16:18:09.639Z,1.50
2022-09-12T16:21:15.317Z,1.33
2022-09-12T16:24:17.562Z,1.37
2022-09-12T16:27:19.676Z,1.30
2022-09-12T16:30:21.738Z,1.90
2022-09-12T16:33:24.169Z,1.30
2022-09-12T16:36:25.828Z,1.48
2022-09-12T16:39:27.415Z,1.60
2022-09-12T16:42:28.999Z,1.35
2022-09-12T16:45:30.907Z,1.50
2022-09-12T16:48:33.806Z,1.48
2022-09-12T16:51:38.604Z,2.30
2022-09-12T16:54:40.869Z,1.17
2022-09-12T16:57:42.533Z,1.62
2022-09-12T17:00:44.131Z,1.20
2022-09-12T17:03:46.056Z,1.10
2022-09-12T17:06:47.793Z,1.20
2022-09-12T17:09:49.799Z,1.50
2022-09-12T17:12:51.485Z,2.15
2022-09-12T17:15:53.178Z,1.15
2022-09-12T17:18:55.437Z,1.30
2022-09-12T17:21:57.756Z,1.20
2022-09-12T17:24:59.395Z,1.40
2022-09-12T17:28:01.229Z,1.35
2022-09-12T17:31:07.258Z,1.37
2022-09-12T17:34:09.929Z,2.08
2022-09-12T17:37:11.862Z,1.90
2022-09-12T17:40:13.987Z,2.00
2022-09-12T17:43:16.376Z,1.80
2022-09-12T17:46:19.948Z,2.08
2022-09-12T17:49:22.321Z,2.20
2022-09-12T17:52:24.374Z,1.77
2022-09-12T17:55:26.710Z,1.90
2022-09-12T17:58:28.380Z,1.45
2022-09-12T18:01:49.498Z,1.58
2022-09-12T18:04:51.143Z,1.50
2022-09-12T18:07:53.097Z,1.60
2022-09-12T18:11:03.178Z,1.62
2022-09-12T18:14:05.392Z,1.40
2022-09-12T18:17:09.025Z,1.20
2022-09-12T18:20:10.912Z,1.35
2022-09-12T18:23:13.049Z,1.60
2022-09-12T18:26:15.208Z,2.03
2022-09-12T18:29:17.735Z,1.40
2022-09-12T18:32:19.735Z,1.30
2022-09-12T18:35:21.793Z,1.40
2022-09-12T18:38:23.822Z,1.35
2022-09-12T18:41:26.535Z,1.55
2022-09-12T18:44:28.713Z,1.70
2022-09-12T18:47:30.691Z,1.40
2022-09-12T18:50:33.709Z,1.35
2022-09-12T18:53:37.476Z,1.30
2022-09-12T18:56:41.347Z,1.50
2022-09-12T18:59:43.634Z,1.40
2022-09-12T19:02:45.792Z,1.77
2022-09-12T19:05:48.038Z,1.92
2022-09-12T19:08:52.140Z,1.60
2022-09-12T19:11:54.212Z,1.35
2022-09-12T19:14:56.248Z,1.50
2022-09-12T19:17:58.486Z,1.50
2022-09-12T19:21:01.831Z,1.65
2022-09-12T19:24:11.636Z,1.60
2022-09-12T19:27:13.970Z,1.73
2022-09-12T19:30:15.990Z,1.80
2022-09-12T19:33:18.797Z,1.70
2022-09-12T19:36:43.765Z,1.75
2022-09-12T19:39:46.155Z,1.67
2022-09-12T19:42:48.106Z,2.08
2022-09-12T19:45:49.976Z,1.80
2022-09-12T19:48:52.947Z,1.90
2022-09-12T19:51:55.059Z,1.98
2022-09-12T19:54:56.664Z,1.70
2022-09-12T19:57:58.259Z,1.70
2022-09-12T20:01:21.372Z,1.73
2022-09-12T20:04:23.093Z,1.60
2022-09-12T20:07:25.113Z,1.85
2022-09-12T20:10:27.301Z,1.77
2022-09-12T20:13:28.976Z,1.90
2022-09-12T20:16:31.153Z,1.70
2022-09-12T20:19:33.453Z,1.90
2022-09-12T20:22:39.409Z,1.98
2022-09-12T20:25:42.134Z,1.62
2022-09-12T20:28:44.027Z,2.42
2022-09-12T20:31:46.089Z,1.92
2022-09-12T20:34:48.149Z,1.70
2022-09-12T20:37:50.221Z,1.87
2022-09-12T20:40:51.960Z,1.87
2022-09-12T20:43:55.535Z,1.73
2022-09-12T20:46:57.411Z,1.77
2022-09-12T20:49:59.312Z,1.48
2022-09-12T20:53:01.724Z,1.85
2022-09-12T20:56:05.323Z,1.80
2022-09-12T20:59:07.037Z,1.70
2022-09-12T21:02:15.948Z,1.60
2022-09-12T21:05:17.784Z,1.60
2022-09-12T21:08:19.610Z,1.80
2022-09-12T21:11:21.220Z,1.65
2022-09-12T21:14:23.052Z,2.00
2022-09-12T21:17:24.655Z,1.83
2022-09-12T21:20:26.480Z,1.80
2022-09-12T21:23:29.054Z,2.05
2022-09-12T21:26:31.435Z,1.90
2022-09-12T21:29:33.452Z,1.92
2022-09-12T21:32:36.017Z,1.95
2022-09-12T21:35:37.927Z,2.37
2022-09-12T21:38:39.844Z,2.10
2022-09-12T21:41:41.612Z,2.12
2022-09-12T21:44:43.434Z,2.10
2022-09-12T21:47:46.021Z,1.90
2022-09-12T21:50:51.035Z,1.85
2022-09-12T21:53:52.702Z,2.10
2022-09-12T21:56:54.265Z,2.00
2022-09-12T21:59:55.848Z,2.20
2022-09-12T22:02:59.123Z,2.83
2022-09-12T22:06:04.039Z,2.00
2022-09-12T22:09:05.907Z,1.73
2022-09-12T22:12:08.741Z,2.08
2022-09-12T22:15:36.303Z,1.95
2022-09-12T22:18:33.970Z,2.10
2022-09-12T22:21:55.493Z,2.05
2022-09-12T22:24:57.055Z,1.98
2022-09-12T22:27:58.920Z,1.95
2022-09-12T22:31:01.394Z,2.20
2022-09-12T22:34:03.846Z,2.25
2022-09-12T22:37:05.852Z,2.20
2022-09-12T22:40:08.017Z,2.37
2022-09-12T22:43:09.659Z,2.50
2022-09-12T22:46:14.845Z,2.30
2022-09-12T22:49:16.493Z,2.45
2022-09-12T22:52:18.363Z,2.53
2022-09-12T22:55:19.926Z,2.70
2022-09-12T22:58:21.872Z,2.12
2022-09-12T23:01:24.166Z,1.90
2022-09-12T23:04:25.887Z,2.20
2022-09-12T23:07:27.707Z,2.10
2022-09-12T23:10:29.426Z,2.30
2022-09-12T23:13:32.508Z,2.58
2022-09-12T23:16:34.203Z,2.33
2022-09-12T23:19:36.116Z,2.25
2022-09-12T23:22:38.351Z,2.30
2022-09-12T23:25:39.941Z,2.53
2022-09-12T23:28:47.839Z,2.70
2022-09-12T23:31:49.786Z,2.08
2022-09-12T23:34:52.803Z,2.45
2022-09-12T23:37:54.464Z,2.65
2022-09-12T23:40:56.369Z,2.40
2022-09-12T23:43:58.109Z,2.30
2022-09-12T23:47:00.034Z,2.30
2022-09-12T23:50:01.730Z,2.28
2022-09-12T23:53:03.692Z,2.50
2022-09-12T23:56:06.275Z,2.40
2022-09-12T23:59:08.334Z,2.40
